createdAt,value
2019-05-23T00:00:52.945Z,1006.47
2019-05-23T00:01:52.926Z,1006.53
2019-05-23T00:02:52.923Z,1006.53
2019-05-23T00:03:52.888Z,1006.55
2019-05-23T00:04:52.872Z,1006.56
2019-05-23T00:05:52.843Z,1006.56
2019-05-23T00:06:52.832Z,1006.53
2019-05-23T00:07:52.814Z,1006.58
2019-05-23T00:08:52.800Z,1006.56
2019-05-23T00:09:52.784Z,1006.52
2019-05-23T00:10:52.756Z,1006.55
2019-05-23T00:11:52.925Z,1006.52
2019-05-23T00:12:52.907Z,1006.53
2019-05-23T00:13:52.890Z,1006.53
2019-05-23T00:14:52.679Z,1006.54
2019-05-23T00:15:52.660Z,1006.49
2019-05-23T00:16:52.641Z,1006.53
2019-05-23T00:17:52.625Z,1006.54
2019-05-23T00:18:52.601Z,1006.48
2019-05-23T00:19:52.582Z,1006.52
2019-05-23T00:20:52.564Z,1006.49
2019-05-23T00:21:52.548Z,1006.47
2019-05-23T00:22:52.526Z,1006.48
2019-05-23T00:23:52.504Z,1006.48
2019-05-23T00:24:52.485Z,1006.43
2019-05-23T00:25:52.468Z,1006.45
2019-05-23T00:26:52.448Z,1006.41
2019-05-23T00:27:52.447Z,1006.41
2019-05-23T00:29:08.768Z,1006.41
2019-05-23T00:29:52.391Z,1006.42
2019-05-23T00:30:52.373Z,1006.42
2019-05-23T00:31:52.351Z,1006.42
2019-05-23T00:32:52.333Z,1006.40
2019-05-23T00:33:52.324Z,1006.44
2019-05-23T00:34:52.298Z,1006.43
2019-05-23T00:35:52.275Z,1006.43
2019-05-23T00:36:52.257Z,1006.45
2019-05-23T00:37:52.236Z,1006.44
2019-05-23T00:38:52.219Z,1006.39
2019-05-23T00:39:52.225Z,1006.42
2019-05-23T00:40:52.178Z,1006.38
2019-05-23T00:41:52.158Z,1006.41
2019-05-23T00:42:52.142Z,1006.38
2019-05-23T00:43:52.122Z,1006.40
2019-05-23T00:44:52.101Z,1006.41
2019-05-23T00:45:52.083Z,1006.35
2019-05-23T00:46:52.067Z,1006.39
2019-05-23T00:47:52.043Z,1006.39
2019-05-23T00:48:52.026Z,1006.39
2019-05-23T00:49:52.005Z,1006.40
2019-05-23T00:50:51.984Z,1006.37
2019-05-23T00:51:51.964Z,1006.33
2019-05-23T00:52:51.946Z,1006.32
2019-05-23T00:53:51.926Z,1006.31
2019-05-23T00:54:51.906Z,1006.33
2019-05-23T00:55:51.888Z,1006.38
2019-05-23T00:56:51.867Z,1006.36
2019-05-23T00:57:51.847Z,1006.32
2019-05-23T00:58:51.833Z,1006.36
2019-05-23T00:59:51.809Z,1006.33
2019-05-23T01:00:51.788Z,1006.34
2019-05-23T01:01:51.789Z,1006.33
2019-05-23T01:02:51.751Z,1006.37
2019-05-23T01:03:51.733Z,1006.34
2019-05-23T01:04:51.731Z,1006.26
2019-05-23T01:05:51.689Z,1006.31
2019-05-23T01:06:51.670Z,1006.31
2019-05-23T01:07:51.653Z,1006.30
2019-05-23T01:08:51.630Z,1006.28
2019-05-23T01:09:51.610Z,1006.30
2019-05-23T01:10:51.593Z,1006.29
2019-05-23T01:11:51.573Z,1006.29
2019-05-23T01:12:51.552Z,1006.27
2019-05-23T01:13:51.533Z,1006.24
2019-05-23T01:14:51.513Z,1006.23
2019-05-23T01:15:51.496Z,1006.20
2019-05-23T01:16:51.479Z,1006.18
2019-05-23T01:17:51.454Z,1006.20
2019-05-23T01:18:51.473Z,1006.18
2019-05-23T01:19:51.413Z,1006.21
2019-05-23T01:20:51.400Z,1006.23
2019-05-23T01:21:51.373Z,1006.24
2019-05-23T01:22:51.354Z,1006.22
2019-05-23T01:23:51.336Z,1006.21
2019-05-23T01:24:51.317Z,1006.20
2019-05-23T01:25:51.294Z,1006.19
2019-05-23T01:26:51.288Z,1006.16
2019-05-23T01:27:51.392Z,1006.14
2019-05-23T01:28:51.236Z,1006.16
2019-05-23T01:29:51.235Z,1006.18
2019-05-23T01:30:51.197Z,1006.13
2019-05-23T01:31:51.432Z,1006.17
2019-05-23T01:32:51.346Z,1006.15
2019-05-23T01:33:51.309Z,1006.13
2019-05-23T01:34:51.302Z,1006.20
2019-05-23T01:35:51.280Z,1006.20
2019-05-23T01:36:51.258Z,1006.19
2019-05-23T01:37:51.058Z,1006.18
2019-05-23T01:38:51.045Z,1006.18
2019-05-23T01:39:51.025Z,1006.15
2019-05-23T01:40:51.001Z,1006.20
2019-05-23T01:41:50.988Z,1006.15
2019-05-23T01:42:50.961Z,1006.19
2019-05-23T01:43:50.938Z,1006.16
2019-05-23T01:44:50.919Z,1006.14
2019-05-23T01:45:50.889Z,1006.20
2019-05-23T01:46:50.879Z,1006.13
2019-05-23T01:47:50.858Z,1006.16
2019-05-23T01:48:51.023Z,1006.16
2019-05-23T01:49:51.009Z,1006.16
2019-05-23T01:50:50.937Z,1006.16
2019-05-23T01:51:50.784Z,1006.19
2019-05-23T01:52:50.757Z,1006.19
2019-05-23T01:53:50.740Z,1006.19
2019-05-23T01:54:50.718Z,1006.21
2019-05-23T01:55:50.707Z,1006.16
2019-05-23T01:56:50.681Z,1006.16
2019-05-23T01:57:50.657Z,1006.17
2019-05-23T01:58:50.641Z,1006.17
2019-05-23T02:00:07.842Z,1006.19
2019-05-23T02:00:50.600Z,1006.21
2019-05-23T02:01:50.581Z,1006.14
2019-05-23T02:02:50.562Z,1006.23
2019-05-23T02:03:50.542Z,1006.19
2019-05-23T02:04:50.519Z,1006.23
2019-05-23T02:05:50.502Z,1006.20
2019-05-23T02:06:50.480Z,1006.17
2019-05-23T02:07:50.455Z,1006.22
2019-05-23T02:08:50.441Z,1006.21
2019-05-23T02:09:50.421Z,1006.16
2019-05-23T02:10:50.409Z,1006.14
2019-05-23T02:11:50.383Z,1006.18
2019-05-23T02:12:50.381Z,1006.18
2019-05-23T02:13:50.343Z,1006.17
2019-05-23T02:14:50.323Z,1006.17
2019-05-23T02:15:50.303Z,1006.15
2019-05-23T02:16:50.284Z,1006.20
2019-05-23T02:17:50.265Z,1006.16
2019-05-23T02:18:50.248Z,1006.17
2019-05-23T02:19:50.222Z,1006.15
2019-05-23T02:20:50.203Z,1006.22
2019-05-23T02:21:50.184Z,1006.16
2019-05-23T02:22:50.165Z,1006.17
2019-05-23T02:23:50.150Z,1006.18
2019-05-23T02:24:50.179Z,1006.19
2019-05-23T02:25:50.105Z,1006.19
2019-05-23T02:26:50.094Z,1006.17
2019-05-23T02:27:50.061Z,1006.20
2019-05-23T02:28:50.043Z,1006.20
2019-05-23T02:29:50.019Z,1006.20
2019-05-23T02:30:50.004Z,1006.17
2019-05-23T02:31:49.985Z,1006.13
2019-05-23T02:32:49.969Z,1006.13
2019-05-23T02:33:49.945Z,1006.13
2019-05-23T02:34:49.924Z,1006.12
2019-05-23T02:35:49.921Z,1006.09
2019-05-23T02:36:49.886Z,1006.10
2019-05-23T02:37:49.877Z,1006.11
2019-05-23T02:38:49.856Z,1006.14
2019-05-23T02:39:49.825Z,1006.17
2019-05-23T02:40:49.804Z,1006.15
2019-05-23T02:41:49.785Z,1006.15
2019-05-23T02:42:49.767Z,1006.12
2019-05-23T02:43:49.748Z,1006.11
2019-05-23T02:44:49.726Z,1006.11
2019-05-23T02:45:49.708Z,1006.11
2019-05-23T02:46:49.685Z,1006.12
2019-05-23T02:47:49.668Z,1006.10
2019-05-23T02:48:49.646Z,1006.13
2019-05-23T02:49:49.627Z,1006.15
2019-05-23T02:50:49.606Z,1006.13
2019-05-23T02:51:49.594Z,1006.11
2019-05-23T02:52:49.572Z,1006.10
2019-05-23T02:53:49.556Z,1006.07
2019-05-23T02:54:49.533Z,1006.02
2019-05-23T02:55:49.511Z,1006.03
2019-05-23T02:56:49.488Z,1006.07
2019-05-23T02:57:49.472Z,1006.07
2019-05-23T02:58:49.474Z,1006.05
2019-05-23T02:59:49.426Z,1006.05
2019-05-23T03:00:55.313Z,1006.09
2019-05-23T03:01:49.386Z,1006.02
2019-05-23T03:02:49.373Z,1006.08
2019-05-23T03:03:49.347Z,1006.05
2019-05-23T03:04:49.330Z,1006.09
2019-05-23T03:05:49.322Z,1006.10
2019-05-23T03:06:49.317Z,1006.07
2019-05-23T03:07:49.268Z,1006.10
2019-05-23T03:08:49.250Z,1006.08
2019-05-23T03:09:49.225Z,1006.14
2019-05-23T03:10:49.218Z,1006.12
2019-05-23T03:11:49.187Z,1006.12
2019-05-23T03:12:49.169Z,1006.10
2019-05-23T03:13:49.140Z,1006.11
2019-05-23T03:14:49.124Z,1006.11
2019-05-23T03:15:49.106Z,1006.08
2019-05-23T03:16:49.089Z,1006.14
2019-05-23T03:17:49.069Z,1006.11
2019-05-23T03:18:49.049Z,1006.08
2019-05-23T03:19:49.025Z,1006.10
2019-05-23T03:20:49.002Z,1006.11
2019-05-23T03:21:48.985Z,1006.12
2019-05-23T03:22:48.985Z,1006.13
2019-05-23T03:23:48.944Z,1006.15
2019-05-23T03:24:48.925Z,1006.13
2019-05-23T03:25:48.902Z,1006.14
2019-05-23T03:26:48.883Z,1006.13
2019-05-23T03:27:48.862Z,1006.12
2019-05-23T03:28:48.840Z,1006.18
2019-05-23T03:29:48.839Z,1006.12
2019-05-23T03:30:48.818Z,1006.16
2019-05-23T03:31:48.782Z,1006.15
2019-05-23T03:32:48.783Z,1006.12
2019-05-23T03:33:48.742Z,1006.16
2019-05-23T03:34:48.722Z,1006.19
2019-05-23T03:35:48.707Z,1006.16
2019-05-23T03:36:48.685Z,1006.12
2019-05-23T03:37:48.663Z,1006.15
2019-05-23T03:38:48.642Z,1006.12
2019-05-23T03:39:48.620Z,1006.13
2019-05-23T03:40:48.617Z,1006.17
2019-05-23T03:41:48.579Z,1006.17
2019-05-23T03:42:48.558Z,1006.17
2019-05-23T03:43:48.543Z,1006.18
2019-05-23T03:44:48.525Z,1006.19
2019-05-23T03:45:48.510Z,1006.24
2019-05-23T03:46:48.477Z,1006.18
2019-05-23T03:47:48.463Z,1006.14
2019-05-23T03:48:48.441Z,1006.11
2019-05-23T03:49:48.416Z,1006.13
2019-05-23T03:50:48.396Z,1006.11
2019-05-23T03:51:48.376Z,1006.13
2019-05-23T03:52:48.355Z,1006.12
2019-05-23T03:53:48.336Z,1006.14
2019-05-23T03:54:48.316Z,1006.13
2019-05-23T03:55:48.298Z,1006.14
2019-05-23T03:56:48.291Z,1006.08
2019-05-23T03:57:48.261Z,1006.10
2019-05-23T03:58:48.241Z,1006.07
2019-05-23T03:59:48.219Z,1006.09
2019-05-23T04:00:48.209Z,1006.09
2019-05-23T04:01:49.210Z,1006.09
2019-05-23T04:02:48.160Z,1006.07
2019-05-23T04:03:48.139Z,1006.06
2019-05-23T04:04:48.120Z,1006.07
2019-05-23T04:05:48.099Z,1006.05
2019-05-23T04:06:48.080Z,1006.07
2019-05-23T04:07:48.060Z,1006.08
2019-05-23T04:08:48.063Z,1006.08
2019-05-23T04:09:48.022Z,1006.11
2019-05-23T04:10:51.624Z,1006.11
2019-05-23T04:11:47.980Z,1006.10
2019-05-23T04:12:47.962Z,1006.08
2019-05-23T04:13:47.943Z,1006.12
2019-05-23T04:14:47.923Z,1006.17
2019-05-23T04:15:47.902Z,1006.17
2019-05-23T04:16:47.884Z,1006.15
2019-05-23T04:17:47.866Z,1006.19
2019-05-23T04:18:47.843Z,1006.18
2019-05-23T04:19:47.852Z,1006.15
2019-05-23T04:20:47.805Z,1006.16
2019-05-23T04:21:47.786Z,1006.18
2019-05-23T04:22:47.783Z,1006.16
2019-05-23T04:23:47.754Z,1006.15
2019-05-23T04:24:47.730Z,1006.16
2019-05-23T04:25:47.711Z,1006.16
2019-05-23T04:26:47.693Z,1006.13
2019-05-23T04:27:47.674Z,1006.09
2019-05-23T04:28:47.652Z,1006.15
2019-05-23T04:29:47.644Z,1006.15
2019-05-23T04:30:47.615Z,1006.20
2019-05-23T04:32:06.082Z,1006.16
2019-05-23T04:32:47.577Z,1006.18
2019-05-23T04:33:47.566Z,1006.16
2019-05-23T04:34:47.543Z,1006.17
2019-05-23T04:35:47.534Z,1006.20
2019-05-23T04:36:47.510Z,1006.18
2019-05-23T04:37:47.485Z,1006.18
2019-05-23T04:38:47.477Z,1006.23
2019-05-23T04:39:47.453Z,1006.22
2019-05-23T04:40:47.431Z,1006.15
2019-05-23T04:41:47.430Z,1006.13
2019-05-23T04:42:47.401Z,1006.15
2019-05-23T04:43:47.379Z,1006.14
2019-05-23T04:44:47.361Z,1006.13
2019-05-23T04:45:47.344Z,1006.14
2019-05-23T04:46:47.328Z,1006.14
2019-05-23T04:47:47.317Z,1006.15
2019-05-23T04:48:47.296Z,1006.16
2019-05-23T04:49:47.277Z,1006.16
2019-05-23T04:50:47.260Z,1006.15
2019-05-23T04:51:47.244Z,1006.19
2019-05-23T04:52:47.229Z,1006.14
2019-05-23T04:53:47.290Z,1006.15
2019-05-23T04:54:47.188Z,1006.12
2019-05-23T04:55:47.191Z,1006.16
2019-05-23T04:56:47.217Z,1006.17
2019-05-23T04:57:47.157Z,1006.19
2019-05-23T04:58:47.131Z,1006.20
2019-05-23T04:59:47.111Z,1006.22
2019-05-23T05:00:47.094Z,1006.23
2019-05-23T05:01:47.077Z,1006.23
2019-05-23T05:02:47.064Z,1006.22
2019-05-23T05:03:47.046Z,1006.23
2019-05-23T05:04:47.039Z,1006.27
2019-05-23T05:05:47.018Z,1006.25
2019-05-23T05:06:46.996Z,1006.30
2019-05-23T05:07:46.998Z,1006.25
2019-05-23T05:08:46.966Z,1006.29
2019-05-23T05:09:46.951Z,1006.29
2019-05-23T05:10:46.929Z,1006.31
2019-05-23T05:11:46.921Z,1006.32
2019-05-23T05:12:46.900Z,1006.30
2019-05-23T05:13:46.893Z,1006.30
2019-05-23T05:14:46.879Z,1006.31
2019-05-23T05:15:46.857Z,1006.30
2019-05-23T05:16:46.847Z,1006.32
2019-05-23T05:17:46.827Z,1006.29
2019-05-23T05:18:46.813Z,1006.32
2019-05-23T05:19:46.799Z,1006.29
2019-05-23T05:20:46.785Z,1006.25
2019-05-23T05:21:46.767Z,1006.29
2019-05-23T05:22:46.753Z,1006.26
2019-05-23T05:23:46.740Z,1006.24
2019-05-23T05:24:46.729Z,1006.26
2019-05-23T05:25:46.748Z,1006.29
2019-05-23T05:26:46.692Z,1006.27
2019-05-23T05:27:46.684Z,1006.29
2019-05-23T05:28:46.669Z,1006.23
2019-05-23T05:29:46.691Z,1006.29
2019-05-23T05:30:46.656Z,1006.23
2019-05-23T05:31:46.709Z,1006.29
2019-05-23T05:32:46.618Z,1006.29
2019-05-23T05:33:46.606Z,1006.33
2019-05-23T05:34:46.594Z,1006.33
2019-05-23T05:35:46.577Z,1006.30
2019-05-23T05:36:46.570Z,1006.31
2019-05-23T05:37:46.556Z,1006.32
2019-05-23T05:38:46.547Z,1006.32
2019-05-23T05:39:46.520Z,1006.31
2019-05-23T05:40:46.519Z,1006.34
2019-05-23T05:41:46.506Z,1006.37
2019-05-23T05:42:46.494Z,1006.33
2019-05-23T05:43:46.545Z,1006.31
2019-05-23T05:44:46.531Z,1006.37
2019-05-23T05:45:46.462Z,1006.35
2019-05-23T05:46:46.452Z,1006.34
2019-05-23T05:47:46.454Z,1006.34
2019-05-23T05:48:46.429Z,1006.34
2019-05-23T05:49:46.417Z,1006.39
2019-05-23T05:50:46.410Z,1006.34
2019-05-23T05:51:46.399Z,1006.39
2019-05-23T05:52:46.406Z,1006.42
2019-05-23T05:53:46.386Z,1006.39
2019-05-23T05:54:46.375Z,1006.42
2019-05-23T05:55:46.384Z,1006.45
2019-05-23T05:56:46.349Z,1006.43
2019-05-23T05:57:46.342Z,1006.47
2019-05-23T05:58:46.333Z,1006.48
2019-05-23T05:59:46.328Z,1006.47
2019-05-23T06:00:46.326Z,1006.45
2019-05-23T06:01:46.302Z,1006.48
2019-05-23T06:03:02.622Z,1006.43
2019-05-23T06:03:46.302Z,1006.44
2019-05-23T06:04:46.277Z,1006.41
2019-05-23T06:05:46.262Z,1006.41
2019-05-23T06:06:49.841Z,1006.38
2019-05-23T06:07:46.250Z,1006.41
2019-05-23T06:08:46.241Z,1006.39
2019-05-23T06:09:46.235Z,1006.41
2019-05-23T06:10:46.225Z,1006.44
2019-05-23T06:11:46.214Z,1006.41
2019-05-23T06:12:46.224Z,1006.48
2019-05-23T06:13:46.195Z,1006.44
2019-05-23T06:14:46.741Z,1006.37
2019-05-23T06:15:46.200Z,1006.43
2019-05-23T06:16:46.167Z,1006.38
2019-05-23T06:17:46.175Z,1006.38
2019-05-23T06:18:46.237Z,1006.37
2019-05-23T06:19:46.148Z,1006.41
2019-05-23T06:20:46.136Z,1006.41
2019-05-23T06:21:46.131Z,1006.41
2019-05-23T06:22:46.118Z,1006.38
2019-05-23T06:23:46.109Z,1006.41
2019-05-23T06:24:50.820Z,1006.36
2019-05-23T06:25:46.110Z,1006.40
2019-05-23T06:26:46.086Z,1006.39
2019-05-23T06:27:46.097Z,1006.38
2019-05-23T06:28:46.066Z,1006.35
2019-05-23T06:29:46.056Z,1006.38
2019-05-23T06:30:46.044Z,1006.42
2019-05-23T06:31:46.042Z,1006.37
2019-05-23T06:32:46.033Z,1006.41
2019-05-23T06:33:46.024Z,1006.36
2019-05-23T06:34:46.016Z,1006.38
2019-05-23T06:35:46.028Z,1006.36
2019-05-23T06:36:46.000Z,1006.37
2019-05-23T06:37:45.990Z,1006.41
2019-05-23T06:38:45.993Z,1006.39
2019-05-23T06:39:45.981Z,1006.33
2019-05-23T06:40:45.967Z,1006.38
2019-05-23T06:41:45.983Z,1006.37
2019-05-23T06:42:50.086Z,1006.38
2019-05-23T06:43:45.956Z,1006.39
2019-05-23T06:44:45.936Z,1006.40
2019-05-23T06:45:45.949Z,1006.41
2019-05-23T06:46:45.919Z,1006.40
2019-05-23T06:47:45.915Z,1006.43
2019-05-23T06:48:46.202Z,1006.41
2019-05-23T06:49:45.899Z,1006.42
2019-05-23T06:50:45.894Z,1006.36
2019-05-23T06:51:45.887Z,1006.34
2019-05-23T06:52:45.878Z,1006.36
2019-05-23T06:53:45.872Z,1006.38
2019-05-23T06:54:45.864Z,1006.38
2019-05-23T06:55:45.879Z,1006.38
2019-05-23T06:56:45.853Z,1006.37
2019-05-23T06:57:45.846Z,1006.36
2019-05-23T06:58:45.841Z,1006.36
2019-05-23T06:59:45.838Z,1006.36
2019-05-23T07:00:46.166Z,1006.36
2019-05-23T07:01:45.824Z,1006.40
2019-05-23T07:02:46.079Z,1006.37
2019-05-23T07:03:45.816Z,1006.35
2019-05-23T07:04:45.805Z,1006.39
2019-05-23T07:05:45.805Z,1006.36
2019-05-23T07:06:45.798Z,1006.38
2019-05-23T07:07:45.790Z,1006.41
2019-05-23T07:08:45.786Z,1006.39
2019-05-23T07:09:45.782Z,1006.42
2019-05-23T07:10:45.781Z,1006.45
2019-05-23T07:11:45.774Z,1006.40
2019-05-23T07:12:45.772Z,1006.39
2019-05-23T07:13:45.762Z,1006.41
2019-05-23T07:14:45.762Z,1006.45
2019-05-23T07:15:45.756Z,1006.47
2019-05-23T07:16:49.936Z,1006.48
2019-05-23T07:17:45.747Z,1006.47
2019-05-23T07:18:45.746Z,1006.46
2019-05-23T07:19:45.740Z,1006.48
2019-05-23T07:20:45.918Z,1006.47
2019-05-23T07:21:45.733Z,1006.48
2019-05-23T07:22:45.748Z,1006.49
2019-05-23T07:23:45.726Z,1006.51
2019-05-23T07:24:57.440Z,1006.47
2019-05-23T07:25:45.718Z,1006.50
2019-05-23T07:26:45.718Z,1006.50
2019-05-23T07:27:45.721Z,1006.48
2019-05-23T07:28:45.709Z,1006.50
2019-05-23T07:29:45.707Z,1006.47
2019-05-23T07:30:45.703Z,1006.51
2019-05-23T07:31:45.703Z,1006.53
2019-05-23T07:32:45.719Z,1006.53
2019-05-23T07:34:00.382Z,1006.53
2019-05-23T07:34:45.691Z,1006.58
2019-05-23T07:35:45.689Z,1006.57
2019-05-23T07:36:45.739Z,1006.53
2019-05-23T07:37:45.683Z,1006.56
2019-05-23T07:38:45.683Z,1006.51
2019-05-23T07:39:45.671Z,1006.55
2019-05-23T07:40:45.676Z,1006.60
2019-05-23T07:41:45.673Z,1006.57
2019-05-23T07:42:45.671Z,1006.55
2019-05-23T07:43:45.664Z,1006.58
2019-05-23T07:44:48.173Z,1006.58
2019-05-23T07:45:45.661Z,1006.60
2019-05-23T07:46:45.678Z,1006.54
2019-05-23T07:47:45.657Z,1006.56
2019-05-23T07:48:45.654Z,1006.58
2019-05-23T07:49:45.655Z,1006.61
2019-05-23T07:50:45.652Z,1006.58
2019-05-23T07:51:45.655Z,1006.52
2019-05-23T07:52:45.646Z,1006.49
2019-05-23T07:53:45.645Z,1006.49
2019-05-23T07:54:45.649Z,1006.49
2019-05-23T07:55:45.637Z,1006.47
2019-05-23T07:56:45.662Z,1006.47
2019-05-23T07:57:45.639Z,1006.43
2019-05-23T07:58:45.642Z,1006.44
2019-05-23T07:59:45.637Z,1006.47
2019-05-23T08:00:45.634Z,1006.48
2019-05-23T08:01:45.632Z,1006.44
2019-05-23T08:02:45.632Z,1006.41
2019-05-23T08:03:45.626Z,1006.45
2019-05-23T08:04:45.634Z,1006.37
2019-05-23T08:05:45.629Z,1006.42
2019-05-23T08:06:48.801Z,1006.40
2019-05-23T08:07:45.656Z,1006.42
2019-05-23T08:08:45.625Z,1006.37
2019-05-23T08:09:45.627Z,1006.37
2019-05-23T08:10:45.635Z,1006.37
2019-05-23T08:11:45.626Z,1006.38
2019-05-23T08:12:45.627Z,1006.40
2019-05-23T08:13:45.622Z,1006.38
2019-05-23T08:14:45.623Z,1006.42
2019-05-23T08:15:45.620Z,1006.39
2019-05-23T08:16:45.620Z,1006.42
2019-05-23T08:17:45.621Z,1006.43
2019-05-23T08:18:45.624Z,1006.44
2019-05-23T08:19:49.471Z,1006.45
2019-05-23T08:20:45.625Z,1006.48
2019-05-23T08:21:45.610Z,1006.50
2019-05-23T08:22:45.626Z,1006.48
2019-05-23T08:23:45.617Z,1006.44
2019-05-23T08:24:45.616Z,1006.51
2019-05-23T08:25:45.620Z,1006.44
2019-05-23T08:26:45.619Z,1006.43
2019-05-23T08:27:45.631Z,1006.45
2019-05-23T08:29:00.877Z,1006.44
2019-05-23T08:29:45.616Z,1006.43
2019-05-23T08:30:45.618Z,1006.46
2019-05-23T08:31:45.619Z,1006.41
2019-05-23T08:32:45.619Z,1006.43
2019-05-23T08:33:45.619Z,1006.43
2019-05-23T08:34:45.615Z,1006.44
2019-05-23T08:35:45.619Z,1006.41
2019-05-23T08:36:45.624Z,1006.38
2019-05-23T08:37:45.622Z,1006.37
2019-05-23T08:38:45.622Z,1006.37
2019-05-23T08:39:45.623Z,1006.38
2019-05-23T08:40:45.627Z,1006.38
2019-05-23T08:41:45.619Z,1006.39
2019-05-23T08:42:45.622Z,1006.40
2019-05-23T08:43:45.626Z,1006.41
2019-05-23T08:44:45.626Z,1006.36
2019-05-23T08:45:45.627Z,1006.37
2019-05-23T08:46:45.628Z,1006.37
2019-05-23T08:47:45.631Z,1006.40
2019-05-23T08:48:45.627Z,1006.33
2019-05-23T08:49:45.633Z,1006.32
2019-05-23T08:50:45.633Z,1006.27
2019-05-23T08:51:45.646Z,1006.28
2019-05-23T08:52:45.639Z,1006.29
2019-05-23T08:53:45.639Z,1006.29
2019-05-23T08:54:45.640Z,1006.27
2019-05-23T08:55:45.647Z,1006.30
2019-05-23T08:56:45.641Z,1006.29
2019-05-23T08:57:45.642Z,1006.23
2019-05-23T08:58:45.646Z,1006.29
2019-05-23T08:59:45.648Z,1006.27
2019-05-23T09:00:45.652Z,1006.31
2019-05-23T09:01:45.651Z,1006.34
2019-05-23T09:02:45.653Z,1006.34
2019-05-23T09:03:45.657Z,1006.30
2019-05-23T09:05:03.643Z,1006.24
2019-05-23T09:05:45.680Z,1006.25
2019-05-23T09:06:45.658Z,1006.25
2019-05-23T09:07:45.667Z,1006.29
2019-05-23T09:08:45.659Z,1006.27
2019-05-23T09:09:45.660Z,1006.29
2019-05-23T09:10:45.660Z,1006.33
2019-05-23T09:11:45.664Z,1006.33
2019-05-23T09:12:45.664Z,1006.30
2019-05-23T09:13:45.669Z,1006.30
2019-05-23T09:14:45.667Z,1006.25
2019-05-23T09:15:45.666Z,1006.20
2019-05-23T09:16:45.668Z,1006.11
2019-05-23T09:17:53.129Z,1006.13
2019-05-23T09:18:45.667Z,1006.12
2019-05-23T09:19:45.679Z,1006.14
2019-05-23T09:20:45.669Z,1006.10
2019-05-23T09:21:45.669Z,1006.13
2019-05-23T09:22:45.675Z,1006.14
2019-05-23T09:23:45.676Z,1006.14
2019-05-23T09:24:45.680Z,1006.11
2019-05-23T09:25:45.683Z,1006.05
2019-05-23T09:26:45.688Z,1006.04
2019-05-23T09:27:45.679Z,1006.13
2019-05-23T09:28:45.700Z,1006.08
2019-05-23T09:29:45.675Z,1006.08
2019-05-23T09:30:45.676Z,1006.11
2019-05-23T09:31:45.674Z,1006.12
2019-05-23T09:32:45.683Z,1006.12
2019-05-23T09:33:45.672Z,1006.10
2019-05-23T09:34:45.674Z,1006.05
2019-05-23T09:35:45.676Z,1006.08
2019-05-23T09:36:45.673Z,1006.12
2019-05-23T09:37:45.686Z,1006.05
2019-05-23T09:38:45.685Z,1006.11
2019-05-23T09:39:45.676Z,1006.10
2019-05-23T09:40:45.673Z,1005.92
2019-05-23T09:41:45.679Z,1005.98
2019-05-23T09:42:45.675Z,1005.96
2019-05-23T09:43:45.673Z,1005.98
2019-05-23T09:44:45.671Z,1005.98
2019-05-23T09:45:45.672Z,1005.98
2019-05-23T09:46:45.667Z,1005.97
2019-05-23T09:47:50.178Z,1006.10
2019-05-23T09:48:45.659Z,1006.10
2019-05-23T09:49:53.563Z,1006.15
2019-05-23T09:50:45.658Z,1006.06
2019-05-23T09:51:46.921Z,1006.07
2019-05-23T09:52:45.650Z,1005.99
2019-05-23T09:53:47.456Z,1005.98
2019-05-23T09:54:45.657Z,1005.98
2019-05-23T09:55:45.644Z,1006.04
2019-05-23T09:56:45.643Z,1005.88
2019-05-23T09:57:45.642Z,1005.89
2019-05-23T09:58:45.646Z,1005.91
2019-05-23T09:59:45.638Z,1005.98
2019-05-23T10:00:45.639Z,1006.06
2019-05-23T10:01:45.659Z,1006.03
2019-05-23T10:02:45.632Z,1005.98
2019-05-23T10:03:45.648Z,1005.92
2019-05-23T10:04:45.649Z,1005.79
2019-05-23T10:05:45.630Z,1005.79
2019-05-23T10:06:46.400Z,1005.76
2019-05-23T10:07:45.619Z,1005.81
2019-05-23T10:08:45.621Z,1005.91
2019-05-23T10:09:45.616Z,1005.85
2019-05-23T10:10:45.612Z,1005.89
2019-05-23T10:11:45.611Z,1005.88
2019-05-23T10:12:45.610Z,1005.87
2019-05-23T10:13:45.603Z,1005.90
2019-05-23T10:14:45.624Z,1005.96
2019-05-23T10:15:45.602Z,1005.87
2019-05-23T10:16:45.601Z,1005.87
2019-05-23T10:17:45.595Z,1005.87
2019-05-23T10:18:45.591Z,1005.86
2019-05-23T10:19:45.590Z,1005.84
2019-05-23T10:20:45.586Z,1005.84
2019-05-23T10:21:45.607Z,1005.88
2019-05-23T10:22:45.586Z,1005.90
2019-05-23T10:23:45.582Z,1005.92
2019-05-23T10:24:45.582Z,1005.83
2019-05-23T10:25:45.634Z,1005.87
2019-05-23T10:26:45.583Z,1005.87
2019-05-23T10:27:45.581Z,1005.88
2019-05-23T10:28:45.582Z,1005.89
2019-05-23T10:29:45.581Z,1005.83
2019-05-23T10:30:45.578Z,1005.78
2019-05-23T10:31:45.578Z,1005.82
2019-05-23T10:32:45.575Z,1005.77
2019-05-23T10:33:45.588Z,1005.77
2019-05-23T10:34:45.576Z,1005.79
2019-05-23T10:35:59.618Z,1005.77
2019-05-23T10:36:45.572Z,1005.70
2019-05-23T10:37:45.572Z,1005.63
2019-05-23T10:38:45.583Z,1005.69
2019-05-23T10:39:45.577Z,1005.69
2019-05-23T10:40:45.571Z,1005.69
2019-05-23T10:41:45.572Z,1005.67
2019-05-23T10:42:45.569Z,1005.72
2019-05-23T10:43:45.569Z,1005.70
2019-05-23T10:44:45.576Z,1005.67
2019-05-23T10:45:45.571Z,1005.69
2019-05-23T10:46:45.565Z,1005.74
2019-05-23T10:47:45.574Z,1005.70
2019-05-23T10:48:45.577Z,1005.72
2019-05-23T10:49:45.569Z,1005.79
2019-05-23T10:50:45.646Z,1005.76
2019-05-23T10:51:45.563Z,1005.67
2019-05-23T10:52:45.560Z,1005.68
2019-05-23T10:53:45.562Z,1005.68
2019-05-23T10:54:45.563Z,1005.67
2019-05-23T10:55:45.564Z,1005.66
2019-05-23T10:56:45.558Z,1005.67
2019-05-23T10:57:45.559Z,1005.70
2019-05-23T10:58:45.557Z,1005.66
2019-05-23T10:59:45.556Z,1005.72
2019-05-23T11:00:45.554Z,1005.63
2019-05-23T11:01:45.584Z,1005.65
2019-05-23T11:02:45.588Z,1005.65
2019-05-23T11:03:45.553Z,1005.62
2019-05-23T11:04:45.551Z,1005.62
2019-05-23T11:05:45.550Z,1005.40
2019-05-23T11:06:45.550Z,1005.63
2019-05-23T11:07:45.548Z,1005.63
2019-05-23T11:08:45.553Z,1005.64
2019-05-23T11:09:45.552Z,1005.66
2019-05-23T11:10:45.547Z,1005.61
2019-05-23T11:11:45.562Z,1005.53
2019-05-23T11:12:45.543Z,1005.56
2019-05-23T11:13:45.558Z,1005.61
2019-05-23T11:14:45.541Z,1005.55
2019-05-23T11:15:45.541Z,1005.55
2019-05-23T11:16:45.541Z,1005.53
2019-05-23T11:17:45.535Z,1005.54
2019-05-23T11:18:45.534Z,1005.51
2019-05-23T11:19:45.533Z,1005.57
2019-05-23T11:20:45.527Z,1005.42
2019-05-23T11:21:45.556Z,1005.43
2019-05-23T11:22:45.526Z,1005.38
2019-05-23T11:23:45.569Z,1005.35
2019-05-23T11:24:45.523Z,1005.34
2019-05-23T11:25:45.521Z,1005.29
2019-05-23T11:26:45.522Z,1005.33
2019-05-23T11:27:45.522Z,1005.36
2019-05-23T11:28:45.519Z,1005.42
2019-05-23T11:29:45.518Z,1005.37
2019-05-23T11:30:45.512Z,1005.40
2019-05-23T11:31:45.511Z,1005.35
2019-05-23T11:32:45.521Z,1005.32
2019-05-23T11:33:45.506Z,1005.34
2019-05-23T11:34:45.501Z,1005.34
2019-05-23T11:35:45.500Z,1005.34
2019-05-23T11:36:45.501Z,1005.31
2019-05-23T11:37:45.494Z,1005.28
2019-05-23T11:38:45.498Z,1005.31
2019-05-23T11:39:49.688Z,1005.27
2019-05-23T11:40:45.489Z,1005.25
2019-05-23T11:41:45.493Z,1005.29
2019-05-23T11:42:45.485Z,1005.27
2019-05-23T11:43:45.486Z,1005.27
2019-05-23T11:44:45.481Z,1005.25
2019-05-23T11:45:46.374Z,1005.32
2019-05-23T11:46:45.478Z,1005.33
2019-05-23T11:47:45.494Z,1005.36
2019-05-23T11:48:45.490Z,1005.31
2019-05-23T11:49:45.851Z,1005.36
2019-05-23T11:50:45.481Z,1005.24
2019-05-23T11:51:45.466Z,1005.25
2019-05-23T11:52:45.465Z,1005.22
2019-05-23T11:53:55.606Z,1005.18
2019-05-23T11:54:45.459Z,1005.22
2019-05-23T11:55:45.466Z,1005.13
2019-05-23T11:56:45.454Z,1005.09
2019-05-23T11:57:45.490Z,1005.15
2019-05-23T11:58:45.448Z,1005.09
2019-05-23T11:59:45.449Z,1005.12
2019-05-23T12:00:45.465Z,1005.12
2019-05-23T12:01:45.437Z,1005.07
2019-05-23T12:02:45.439Z,1005.08
2019-05-23T12:03:45.439Z,1005.09
2019-05-23T12:04:45.434Z,1005.11
2019-05-23T12:05:45.431Z,1005.09